sensor_id;sensor_type;location;lat;lon;timestamp;pressure;altitude;pressure_sealevel;temperature;humidity
80699;BME280;70062;51.658;5.658;2023-06-24T00:01:39;102272.67;;;20.12;62.81
80699;BME280;70062;51.658;5.658;2023-06-24T00:04:05;102266.38;;;20.12;62.73
80699;BME280;70062;51.658;5.658;2023-06-24T00:06:30;102269.96;;;20.09;62.80
80699;BME280;70062;51.658;5.658;2023-06-24T00:08:55;102270.35;;;20.06;62.76
80699;BME280;70062;51.658;5.658;2023-06-24T00:11:30;102270.34;;;20.00;62.81
80699;BME280;70062;51.658;5.658;2023-06-24T00:13:56;102269.27;;;19.94;62.98
80699;BME280;70062;51.658;5.658;2023-06-24T00:16:21;102268.22;;;19.89;63.18
80699;BME280;70062;51.658;5.658;2023-06-24T00:18:55;102270.85;;;19.84;63.36
80699;BME280;70062;51.658;5.658;2023-06-24T00:21:28;102267.05;;;19.80;63.35
80699;BME280;70062;51.658;5.658;2023-06-24T00:23:56;102268.64;;;19.75;63.45
80699;BME280;70062;51.658;5.658;2023-06-24T00:26:22;102266.55;;;19.70;63.59
80699;BME280;70062;51.658;5.658;2023-06-24T00:28:48;102269.77;;;19.63;63.93
80699;BME280;70062;51.658;5.658;2023-06-24T00:31:13;102268.77;;;19.54;64.13
80699;BME280;70062;51.658;5.658;2023-06-24T00:33:38;102271.58;;;19.45;64.14
80699;BME280;70062;51.658;5.658;2023-06-24T00:36:04;102271.22;;;19.35;64.10
80699;BME280;70062;51.658;5.658;2023-06-24T00:38:31;102275.35;;;19.25;64.44
80699;BME280;70062;51.658;5.658;2023-06-24T00:40:58;102276.74;;;19.15;64.84
80699;BME280;70062;51.658;5.658;2023-06-24T00:43:23;102289.39;;;19.05;65.29
80699;BME280;70062;51.658;5.658;2023-06-24T00:45:49;102295.86;;;18.97;65.65
80699;BME280;70062;51.658;5.658;2023-06-24T00:48:15;102296.95;;;18.94;65.79
80699;BME280;70062;51.658;5.658;2023-06-24T00:50:41;102300.38;;;18.92;66.34
80699;BME280;70062;51.658;5.658;2023-06-24T00:53:10;102306.12;;;18.92;66.57
80699;BME280;70062;51.658;5.658;2023-06-24T00:55:37;102310.09;;;18.91;66.59
80699;BME280;70062;51.658;5.658;2023-06-24T00:58:03;102308.85;;;18.90;66.95
80699;BME280;70062;51.658;5.658;2023-06-24T01:00:30;102311.34;;;18.87;67.11
80699;BME280;70062;51.658;5.658;2023-06-24T01:02:58;102307.91;;;18.84;67.22
80699;BME280;70062;51.658;5.658;2023-06-24T01:05:24;102300.39;;;18.79;67.25
80699;BME280;70062;51.658;5.658;2023-06-24T01:07:51;102292.55;;;18.74;67.33
80699;BME280;70062;51.658;5.658;2023-06-24T01:10:21;102291.70;;;18.70;67.44
80699;BME280;70062;51.658;5.658;2023-06-24T01:12:48;102290.05;;;18.63;67.56
80699;BME280;70062;51.658;5.658;2023-06-24T01:15:13;102291.86;;;18.57;67.64
80699;BME280;70062;51.658;5.658;2023-06-24T01:17:56;102297.11;;;18.54;67.61
80699;BME280;70062;51.658;5.658;2023-06-24T01:20:49;102291.75;;;18.50;68.25
80699;BME280;70062;51.658;5.658;2023-06-24T01:35:00;102277.12;;;18.32;68.90
80699;BME280;70062;51.658;5.658;2023-06-24T01:37:48;102277.25;;;18.26;69.14
80699;BME280;70062;51.658;5.658;2023-06-24T01:40:27;102277.55;;;18.21;69.75
80699;BME280;70062;51.658;5.658;2023-06-24T01:43:01;102279.36;;;18.15;69.98
80699;BME280;70062;51.658;5.658;2023-06-24T01:45:30;102276.34;;;18.08;70.18
80699;BME280;70062;51.658;5.658;2023-06-24T01:48:13;102275.88;;;18.02;70.51
80699;BME280;70062;51.658;5.658;2023-06-24T01:51:06;102272.46;;;17.99;70.73
80699;BME280;70062;51.658;5.658;2023-06-24T01:53:36;102274.61;;;17.96;71.11
80699;BME280;70062;51.658;5.658;2023-06-24T01:56:15;102272.06;;;17.93;71.30
80699;BME280;70062;51.658;5.658;2023-06-24T01:58:42;102270.80;;;17.92;71.49
80699;BME280;70062;51.658;5.658;2023-06-24T02:01:12;102270.17;;;17.89;71.26
80699;BME280;70062;51.658;5.658;2023-06-24T12:02:55;102199.07;;;32.48;25.39
80699;BME280;70062;51.658;5.658;2023-06-24T12:05:27;102193.46;;;32.35;25.86
80699;BME280;70062;51.658;5.658;2023-06-24T12:08:05;102189.42;;;32.59;25.43
80699;BME280;70062;51.658;5.658;2023-06-24T12:10:31;102191.16;;;32.95;26.03
80699;BME280;70062;51.658;5.658;2023-06-24T12:12:59;102189.38;;;33.34;24.75
80699;BME280;70062;51.658;5.658;2023-06-24T12:15:26;102185.78;;;33.57;23.60
80699;BME280;70062;51.658;5.658;2023-06-24T12:17:52;102184.70;;;33.71;23.76
80699;BME280;70062;51.658;5.658;2023-06-24T12:20:17;102179.77;;;34.15;23.28
80699;BME280;70062;51.658;5.658;2023-06-24T12:22:44;102186.03;;;34.93;22.40
80699;BME280;70062;51.658;5.658;2023-06-24T12:25:10;102182.21;;;35.67;21.36
